createdAt,value
2022-11-27T00:02:22.334Z,10.56
2022-11-27T00:04:48.799Z,10.65
2022-11-27T00:07:15.263Z,10.63
2022-11-27T00:09:42.104Z,10.63
2022-11-27T00:12:08.867Z,10.62
2022-11-27T00:14:35.377Z,10.54
2022-11-27T00:17:01.851Z,10.59
2022-11-27T00:19:29.170Z,10.51
2022-11-27T00:21:55.633Z,10.41
2022-11-27T00:24:22.115Z,10.50
2022-11-27T00:26:49.776Z,10.50
2022-11-27T00:29:16.308Z,10.57
2022-11-27T00:31:42.891Z,10.54
2022-11-27T00:34:10.568Z,10.53
2022-11-27T00:36:37.753Z,10.53
2022-11-27T00:39:05.480Z,10.43
2022-11-27T00:41:32.928Z,10.58
2022-11-27T00:43:59.444Z,10.49
2022-11-27T00:46:29.321Z,10.58
2022-11-27T00:48:57.984Z,10.59
2022-11-27T00:51:25.060Z,10.54
2022-11-27T00:53:52.246Z,10.49
2022-11-27T00:56:21.512Z,10.59
2022-11-27T00:58:48.015Z,10.55
2022-11-27T01:01:36.217Z,10.60
2022-11-27T01:04:04.555Z,10.61
2022-11-27T01:06:31.274Z,10.62
2022-11-27T01:08:58.300Z,10.62
2022-11-27T01:11:30.023Z,10.65
2022-11-27T01:13:59.670Z,10.66
2022-11-27T01:16:28.339Z,10.66
2022-11-27T01:18:57.933Z,10.68
2022-11-27T01:21:25.986Z,10.69
2022-11-27T01:23:54.083Z,10.60
2022-11-27T01:26:21.531Z,10.72
2022-11-27T01:28:52.352Z,10.73
2022-11-27T01:31:22.932Z,10.72
2022-11-27T01:33:54.006Z,10.74
2022-11-27T01:36:21.060Z,10.73
2022-11-27T01:38:47.652Z,10.74
2022-11-27T01:41:21.289Z,10.76
2022-11-27T01:43:56.606Z,10.80
2022-11-27T01:46:46.861Z,10.76
2022-11-27T01:49:22.587Z,10.85
2022-11-27T01:51:59.580Z,10.84
2022-11-27T01:54:35.180Z,10.80
2022-11-27T01:57:10.036Z,10.88
2022-11-27T01:59:36.554Z,10.90
2022-11-27T02:02:04.244Z,10.84
2022-11-27T02:04:31.369Z,10.88
2022-11-27T02:06:59.599Z,10.94
2022-11-27T02:09:28.187Z,10.88
2022-11-27T02:12:13.365Z,10.99
2022-11-27T02:14:49.225Z,10.96
2022-11-27T02:17:45.043Z,11.00
2022-11-27T02:20:33.059Z,11.05
2022-11-27T02:23:47.968Z,11.06
2022-11-27T02:26:39.023Z,11.09
2022-11-27T02:29:07.856Z,11.03
2022-11-27T02:31:45.385Z,11.03
2022-11-27T02:34:39.791Z,11.15
2022-11-27T02:37:21.396Z,11.17
2022-11-27T02:40:02.924Z,11.18
2022-11-27T02:42:36.265Z,11.16
2022-11-27T02:45:10.150Z,11.07
2022-11-27T02:47:40.110Z,11.22
2022-11-27T02:50:14.481Z,11.22
2022-11-27T02:52:42.269Z,11.26
2022-11-27T02:55:12.805Z,11.22
2022-11-27T02:57:41.157Z,11.18
2022-11-27T03:00:09.118Z,11.28
2022-11-27T03:02:59.622Z,11.28
2022-11-27T03:05:30.424Z,11.24
2022-11-27T03:08:05.813Z,11.31
2022-11-27T03:10:44.400Z,11.40
2022-11-27T03:13:11.004Z,11.38
2022-11-27T03:15:49.997Z,11.41
2022-11-27T03:18:36.260Z,11.38
2022-11-27T03:21:12.035Z,11.45
2022-11-27T03:23:38.651Z,11.46
2022-11-27T03:26:05.386Z,11.37
2022-11-27T03:28:32.877Z,11.54
2022-11-27T03:30:59.373Z,11.48
2022-11-27T03:33:25.918Z,11.42
2022-11-27T03:35:53.010Z,11.51
2022-11-27T03:38:19.628Z,11.45
2022-11-27T03:40:53.845Z,11.57
2022-11-27T03:43:27.824Z,11.58
2022-11-27T03:46:00.075Z,11.66
2022-11-27T03:48:39.397Z,11.68
2022-11-27T03:51:18.312Z,11.68
2022-11-27T03:53:52.729Z,11.73
2022-11-27T03:56:39.954Z,11.73
2022-11-27T03:59:13.315Z,11.75
2022-11-27T04:01:40.523Z,11.69
2022-11-27T04:04:07.262Z,11.76
2022-11-27T04:06:33.872Z,11.78
2022-11-27T04:09:00.346Z,11.73
2022-11-27T04:11:27.304Z,11.77
2022-11-27T04:13:53.749Z,11.76
2022-11-27T04:16:20.639Z,11.63
2022-11-27T04:18:47.211Z,11.74
2022-11-27T04:21:13.708Z,11.55
2022-11-27T04:23:40.793Z,11.84
2022-11-27T04:26:07.268Z,11.82
2022-11-27T04:28:33.844Z,11.83
2022-11-27T04:31:00.313Z,11.83
2022-11-27T04:33:26.804Z,11.83
2022-11-27T04:35:53.321Z,11.86
2022-11-27T04:38:21.132Z,11.87
2022-11-27T04:40:47.761Z,11.66
2022-11-27T04:43:14.329Z,11.92
2022-11-27T04:45:41.590Z,11.86
2022-11-27T04:48:08.117Z,11.80
2022-11-27T04:50:34.659Z,11.93
2022-11-27T04:53:01.219Z,11.94
2022-11-27T04:55:27.776Z,11.96
2022-11-27T04:57:54.275Z,11.95
2022-11-27T05:00:21.614Z,11.90
2022-11-27T05:02:48.163Z,12.00
2022-11-27T05:05:14.796Z,12.01
2022-11-27T05:07:41.363Z,12.04
2022-11-27T05:10:08.574Z,11.98
2022-11-27T05:12:35.097Z,12.03
2022-11-27T05:15:04.429Z,12.07
2022-11-27T05:17:31.503Z,11.98
2022-11-27T05:19:57.966Z,12.08
2022-11-27T05:22:24.420Z,12.03
2022-11-27T05:24:50.878Z,12.10
2022-11-27T05:27:17.372Z,12.08
2022-11-27T05:29:43.964Z,12.02
2022-11-27T05:32:10.492Z,12.12
2022-11-27T05:34:36.959Z,12.07
2022-11-27T05:37:03.468Z,11.95
2022-11-27T05:39:29.962Z,12.08
2022-11-27T05:41:56.739Z,12.09
2022-11-27T05:44:23.210Z,12.10
2022-11-27T05:46:49.769Z,12.06
2022-11-27T05:49:16.816Z,12.05
2022-11-27T05:51:49.367Z,11.99
2022-11-27T05:54:17.614Z,12.14
2022-11-27T05:56:44.097Z,12.04
2022-11-27T05:59:10.945Z,11.99
2022-11-27T06:01:37.521Z,12.05
2022-11-27T06:04:04.239Z,12.10
2022-11-27T06:06:30.938Z,12.16
2022-11-27T06:08:57.407Z,12.14
2022-11-27T06:11:24.004Z,12.16
2022-11-27T06:13:51.318Z,12.13
2022-11-27T06:16:22.970Z,12.11
2022-11-27T06:18:54.833Z,12.10
2022-11-27T06:21:22.230Z,12.14
2022-11-27T06:23:48.996Z,12.19
2022-11-27T06:26:21.770Z,12.19
2022-11-27T06:28:49.155Z,12.20
2022-11-27T06:31:21.502Z,12.20
2022-11-27T06:33:49.746Z,12.22
2022-11-27T06:36:17.347Z,12.21
2022-11-27T06:38:44.686Z,12.17
2022-11-27T06:41:17.731Z,12.19
2022-11-27T06:43:44.585Z,12.03
2022-11-27T06:46:16.975Z,12.11
2022-11-27T06:48:45.373Z,12.17
2022-11-27T06:51:15.437Z,12.17
2022-11-27T06:53:42.658Z,12.15
2022-11-27T06:56:16.699Z,12.16
2022-11-27T06:58:43.713Z,12.09
2022-11-27T07:01:13.463Z,12.16
2022-11-27T07:03:40.561Z,12.16
2022-11-27T07:06:09.971Z,12.02
2022-11-27T07:08:37.500Z,12.16
2022-11-27T07:11:10.378Z,12.13
2022-11-27T07:13:36.825Z,12.13
2022-11-27T07:16:06.090Z,12.13
2022-11-27T07:18:38.443Z,12.18
2022-11-27T07:21:05.210Z,12.11
2022-11-27T07:23:31.976Z,12.15
2022-11-27T07:25:58.704Z,12.19
2022-11-27T07:28:25.761Z,12.19
2022-11-27T07:30:56.415Z,12.18
2022-11-27T07:33:23.655Z,12.17
2022-11-27T07:35:50.171Z,12.21
2022-11-27T07:38:16.588Z,12.18
2022-11-27T07:40:43.030Z,12.17
2022-11-27T07:43:09.535Z,12.24
2022-11-27T07:45:36.024Z,11.99
2022-11-27T07:48:02.521Z,12.19
2022-11-27T07:50:28.970Z,12.30
2022-11-27T07:52:55.408Z,12.22
2022-11-27T07:55:21.865Z,12.31
2022-11-27T07:57:48.275Z,12.32
2022-11-27T08:00:15.206Z,12.28
2022-11-27T08:02:41.642Z,12.32
2022-11-27T08:05:12.785Z,12.35
2022-11-27T08:07:39.857Z,12.37
2022-11-27T08:10:07.471Z,12.36
2022-11-27T08:12:33.974Z,12.36
2022-11-27T08:15:00.475Z,12.31
2022-11-27T08:17:26.919Z,12.38
2022-11-27T08:19:53.433Z,12.24
2022-11-27T08:22:20.704Z,12.35
2022-11-27T08:24:48.085Z,12.34
2022-11-27T08:27:16.297Z,12.32
2022-11-27T08:29:42.814Z,12.34
2022-11-27T08:32:09.769Z,12.32
2022-11-27T08:34:36.676Z,12.30
2022-11-27T08:37:05.326Z,12.16
2022-11-27T08:39:31.922Z,12.13
2022-11-27T08:41:58.543Z,12.22
2022-11-27T08:44:25.105Z,12.31
2022-11-27T08:46:51.560Z,12.33
2022-11-27T08:49:18.208Z,12.33
2022-11-27T08:51:44.748Z,12.08
2022-11-27T08:54:11.757Z,12.37
2022-11-27T08:56:38.209Z,12.35
2022-11-27T08:59:04.776Z,12.37
2022-11-27T09:01:32.443Z,12.42
2022-11-27T09:03:59.917Z,12.43
2022-11-27T09:06:30.257Z,12.43
2022-11-27T09:08:59.033Z,12.43
2022-11-27T09:11:26.834Z,12.32
2022-11-27T09:13:53.368Z,12.43
2022-11-27T09:16:21.808Z,12.46
2022-11-27T09:18:51.703Z,12.46
2022-11-27T09:21:20.823Z,12.47
2022-11-27T09:23:47.662Z,12.38
2022-11-27T09:26:16.622Z,12.49
2022-11-27T09:28:44.448Z,12.49
2022-11-27T09:31:13.648Z,12.54
2022-11-27T09:33:41.767Z,12.41
2022-11-27T09:36:11.105Z,12.57
2022-11-27T09:38:38.245Z,12.58
2022-11-27T09:41:10.447Z,12.66
2022-11-27T09:43:45.247Z,12.63
2022-11-27T09:46:17.543Z,12.71
2022-11-27T09:48:49.222Z,12.70
2022-11-27T09:51:27.908Z,12.70
2022-11-27T09:54:19.611Z,12.77
2022-11-27T09:56:49.428Z,12.77
2022-11-27T09:59:21.555Z,12.81
2022-11-27T10:01:51.143Z,12.83
2022-11-27T10:04:20.326Z,12.86
2022-11-27T10:06:52.773Z,12.91
2022-11-27T10:09:41.188Z,12.86
2022-11-27T10:12:22.179Z,12.97
2022-11-27T10:15:10.252Z,13.02
2022-11-27T10:17:55.483Z,12.99
2022-11-27T10:20:29.052Z,12.89
2022-11-27T10:23:29.949Z,13.05
2022-11-27T10:26:05.660Z,13.01
2022-11-27T10:28:41.753Z,13.06
2022-11-27T10:31:08.176Z,13.03
2022-11-27T10:33:46.703Z,13.14
2022-11-27T10:36:16.971Z,13.02
2022-11-27T10:38:44.489Z,13.01
2022-11-27T10:41:48.038Z,13.17
2022-11-27T10:44:39.072Z,13.18
2022-11-27T10:47:08.811Z,13.05
2022-11-27T10:49:40.184Z,13.09
2022-11-27T10:52:12.535Z,13.17
2022-11-27T10:54:39.987Z,13.17
2022-11-27T10:57:28.380Z,13.20
2022-11-27T11:00:10.028Z,13.21
2022-11-27T11:02:38.751Z,13.21
2022-11-27T11:05:37.334Z,13.22
2022-11-27T11:08:17.915Z,13.27
2022-11-27T11:10:53.068Z,13.27
2022-11-27T11:13:22.953Z,13.33
2022-11-27T11:15:55.309Z,13.35
2022-11-27T11:18:52.004Z,13.32
2022-11-27T11:21:42.304Z,13.38
2022-11-27T11:24:18.979Z,13.38
2022-11-27T11:26:52.340Z,13.24
2022-11-27T11:29:34.101Z,13.38
2022-11-27T11:32:14.654Z,13.36
2022-11-27T11:34:44.181Z,13.40
2022-11-27T11:37:41.807Z,13.39
2022-11-27T11:40:16.236Z,13.40
2022-11-27T11:42:59.745Z,13.43
2022-11-27T11:45:31.360Z,13.43
2022-11-27T11:48:02.205Z,13.29
2022-11-27T11:50:31.383Z,13.51
2022-11-27T11:53:09.901Z,13.52
2022-11-27T11:55:43.835Z,13.55
2022-11-27T11:58:38.392Z,13.57
2022-11-27T12:01:43.494Z,13.58
2022-11-27T12:04:31.359Z,13.66
2022-11-27T12:07:11.123Z,13.72
2022-11-27T12:09:59.632Z,13.71
2022-11-27T12:12:32.109Z,13.72
2022-11-27T12:15:11.075Z,13.73
2022-11-27T12:17:58.753Z,13.61
2022-11-27T12:20:42.345Z,13.63
2022-11-27T12:23:17.837Z,13.78
2022-11-27T12:26:03.829Z,13.81
2022-11-27T12:28:59.476Z,13.73
2022-11-27T12:31:52.086Z,13.82
2022-11-27T12:34:33.264Z,13.85
2022-11-27T12:37:21.470Z,13.85
2022-11-27T12:40:04.410Z,13.89
2022-11-27T12:42:42.202Z,13.94
2022-11-27T12:45:19.740Z,13.96
2022-11-27T12:47:55.320Z,14.00
2022-11-27T12:50:32.552Z,14.00
2022-11-27T12:53:11.561Z,14.01
2022-11-27T12:55:40.391Z,14.00
2022-11-27T12:58:16.006Z,13.96
2022-11-27T13:00:43.687Z,13.98
2022-11-27T13:03:34.524Z,13.79
2022-11-27T13:06:09.651Z,13.92
2022-11-27T13:09:03.786Z,13.92
2022-11-27T13:11:37.436Z,13.95
2022-11-27T13:14:09.936Z,13.96
2022-11-27T13:16:46.339Z,13.95
2022-11-27T13:19:39.446Z,13.95
2022-11-27T13:22:10.129Z,13.80
2022-11-27T13:24:36.777Z,13.96
2022-11-27T13:27:17.308Z,13.78
2022-11-27T13:29:55.481Z,13.84
2022-11-27T13:32:26.770Z,13.89
2022-11-27T13:34:56.716Z,13.79
2022-11-27T13:37:28.283Z,13.83
2022-11-27T13:40:16.556Z,13.71
2022-11-27T13:42:46.058Z,13.84
2022-11-27T13:45:22.266Z,13.79
2022-11-27T13:47:50.927Z,13.80
2022-11-27T13:50:20.397Z,13.81
2022-11-27T13:53:04.247Z,13.52
2022-11-27T13:55:36.686Z,13.77
2022-11-27T13:58:06.115Z,13.73
2022-11-27T14:00:34.127Z,13.70
2022-11-27T14:03:01.208Z,13.66
2022-11-27T14:05:38.941Z,13.60
2022-11-27T14:08:17.409Z,13.56
2022-11-27T14:10:55.519Z,13.48
2022-11-27T14:13:32.013Z,13.35
2022-11-27T14:16:02.002Z,13.46
2022-11-27T14:18:30.453Z,13.22
2022-11-27T14:21:02.867Z,13.20
2022-11-27T14:23:50.839Z,13.24
2022-11-27T14:26:24.071Z,13.22
2022-11-27T14:28:55.756Z,13.20
2022-11-27T14:31:24.805Z,13.08
2022-11-27T14:34:14.363Z,12.96
2022-11-27T14:36:37.811Z,13.11
2022-11-27T14:39:05.016Z,13.05
2022-11-27T14:41:31.758Z,12.94
2022-11-27T14:44:03.043Z,12.91
2022-11-27T14:46:32.337Z,12.71
2022-11-27T14:48:59.034Z,12.84
2022-11-27T14:51:27.989Z,12.78
2022-11-27T14:54:00.017Z,12.72
2022-11-27T14:56:33.751Z,12.68
2022-11-27T14:59:01.593Z,12.66
2022-11-27T15:01:31.764Z,12.63
2022-11-27T15:03:59.540Z,12.55
2022-11-27T15:06:29.931Z,12.46
2022-11-27T15:09:23.718Z,12.48
2022-11-27T15:11:55.861Z,12.38
2022-11-27T15:14:25.469Z,12.39
2022-11-27T15:16:53.751Z,12.31
2022-11-27T15:19:29.743Z,12.29
2022-11-27T15:21:57.684Z,12.29
2022-11-27T15:24:35.838Z,12.24
2022-11-27T15:27:14.422Z,12.20
2022-11-27T15:29:46.101Z,12.16
2022-11-27T15:32:24.751Z,12.10
2022-11-27T15:34:54.682Z,11.95
2022-11-27T15:37:28.235Z,11.98
2022-11-27T15:39:56.520Z,11.92
2022-11-27T15:42:23.245Z,11.84
2022-11-27T15:44:53.561Z,11.83
2022-11-27T15:47:33.856Z,11.78
2022-11-27T15:50:00.809Z,11.77
2022-11-27T15:52:27.677Z,11.75
2022-11-27T15:54:55.445Z,11.51
2022-11-27T15:57:22.630Z,11.72
2022-11-27T15:59:49.103Z,11.66
2022-11-27T16:02:18.009Z,11.67
2022-11-27T16:04:44.669Z,11.64
2022-11-27T16:07:11.213Z,11.63
2022-11-27T16:09:39.863Z,11.49
2022-11-27T16:12:06.901Z,11.34
2022-11-27T16:14:33.432Z,11.61
2022-11-27T16:17:01.262Z,11.54
2022-11-27T16:19:27.883Z,11.58
2022-11-27T16:21:54.740Z,11.52
2022-11-27T16:24:21.317Z,11.54
2022-11-27T16:26:47.899Z,11.51
2022-11-27T16:29:14.528Z,11.42
2022-11-27T16:31:41.060Z,11.39
2022-11-27T16:34:07.705Z,11.51
2022-11-27T16:36:34.770Z,11.51
2022-11-27T16:39:01.252Z,11.49
2022-11-27T16:41:27.842Z,11.52
2022-11-27T16:43:56.129Z,11.47
2022-11-27T16:46:29.827Z,11.50
2022-11-27T16:48:59.066Z,11.47
2022-11-27T16:51:33.335Z,11.45
2022-11-27T16:54:03.668Z,11.45
2022-11-27T16:56:31.797Z,11.33
2022-11-27T16:59:02.752Z,11.39
2022-11-27T17:01:32.871Z,11.37
2022-11-27T17:03:59.675Z,11.27
2022-11-27T17:06:31.311Z,11.30
2022-11-27T17:09:00.049Z,11.29
2022-11-27T17:11:29.715Z,11.26
2022-11-27T17:13:58.040Z,11.19
2022-11-27T17:16:24.965Z,11.17
2022-11-27T17:18:51.520Z,11.16
2022-11-27T17:21:24.924Z,10.98
2022-11-27T17:23:53.853Z,11.12
2022-11-27T17:26:22.662Z,11.13
2022-11-27T17:28:49.690Z,10.92
2022-11-27T17:31:18.828Z,11.08
2022-11-27T17:33:46.363Z,11.04
2022-11-27T17:36:13.502Z,11.08
2022-11-27T17:38:40.083Z,11.07
2022-11-27T17:41:09.166Z,11.06
2022-11-27T17:43:36.897Z,11.05
2022-11-27T17:46:13.287Z,11.03
2022-11-27T17:48:39.935Z,11.01
2022-11-27T17:51:07.140Z,11.03
2022-11-27T17:53:34.330Z,11.02
2022-11-27T17:56:05.382Z,10.94
2022-11-27T17:58:31.952Z,10.93
2022-11-27T18:00:58.817Z,10.95
2022-11-27T18:03:25.612Z,10.93
2022-11-27T18:05:52.065Z,10.92
2022-11-27T18:08:18.506Z,10.94
2022-11-27T18:10:45.772Z,10.94
2022-11-27T18:13:12.381Z,10.95
2022-11-27T18:15:39.104Z,10.98
2022-11-27T18:18:05.700Z,10.95
2022-11-27T18:20:32.145Z,10.93
2022-11-27T18:22:58.673Z,10.91
2022-11-27T18:25:25.164Z,10.93
2022-11-27T18:27:51.625Z,10.91
2022-11-27T18:30:18.344Z,10.86
2022-11-27T18:32:44.830Z,10.69
2022-11-27T18:35:11.274Z,10.83
2022-11-27T18:37:38.523Z,10.81
2022-11-27T18:40:09.286Z,10.77
2022-11-27T18:42:36.003Z,10.80
2022-11-27T18:45:02.489Z,10.66
2022-11-27T18:47:28.966Z,10.77
2022-11-27T18:49:56.536Z,10.71
2022-11-27T18:52:23.079Z,10.72
2022-11-27T18:54:49.533Z,10.70
2022-11-27T18:57:15.979Z,10.67
2022-11-27T18:59:44.241Z,10.68
2022-11-27T19:02:11.166Z,10.56
2022-11-27T19:04:38.018Z,10.62
2022-11-27T19:07:04.901Z,10.53
2022-11-27T19:09:31.402Z,10.57
2022-11-27T19:11:57.965Z,10.49
2022-11-27T19:14:24.426Z,10.48
2022-11-27T19:16:51.114Z,10.47
2022-11-27T19:22:09.407Z,10.31
2022-11-27T19:24:36.906Z,10.37
2022-11-27T19:27:03.581Z,10.35
2022-11-27T19:29:30.087Z,10.40
2022-11-27T19:31:58.761Z,10.40
2022-11-27T19:34:25.476Z,10.39
2022-11-27T19:36:52.897Z,10.39
2022-11-27T19:39:19.355Z,10.31
2022-11-27T19:41:45.891Z,10.39
2022-11-27T19:44:13.101Z,10.35
2022-11-27T19:46:40.181Z,10.37
2022-11-27T19:49:12.239Z,10.17
2022-11-27T19:51:39.214Z,10.39
2022-11-27T19:54:10.210Z,10.39
2022-11-27T19:56:39.598Z,10.28
2022-11-27T19:59:06.987Z,10.41
2022-11-27T20:01:33.682Z,10.38
2022-11-27T20:04:01.987Z,10.36
2022-11-27T20:06:28.673Z,10.35
2022-11-27T20:09:00.237Z,10.39
2022-11-27T20:11:32.669Z,10.37
2022-11-27T20:14:01.002Z,10.33
2022-11-27T20:16:27.795Z,10.37
2022-11-27T20:18:54.634Z,10.36
2022-11-27T20:21:23.530Z,10.37
2022-11-27T20:23:51.770Z,10.40
2022-11-27T20:26:23.482Z,10.38
2022-11-27T20:28:51.061Z,10.39
2022-11-27T20:31:23.741Z,10.35
2022-11-27T20:33:55.978Z,10.39
2022-11-27T20:36:23.519Z,10.36
2022-11-27T20:38:50.767Z,10.37
2022-11-27T20:41:19.600Z,10.40
2022-11-27T20:43:46.667Z,10.37
2022-11-27T20:46:15.553Z,10.25
2022-11-27T20:48:45.387Z,10.36
2022-11-27T20:51:14.121Z,10.28
2022-11-27T20:53:41.962Z,10.40
2022-11-27T20:56:09.959Z,10.36
2022-11-27T20:58:38.279Z,10.30
2022-11-27T21:01:20.111Z,10.38
2022-11-27T21:03:48.531Z,10.24
2022-11-27T21:06:16.892Z,10.28
2022-11-27T21:08:43.379Z,10.25
2022-11-27T21:11:09.989Z,10.27
2022-11-27T21:13:36.693Z,10.22
2022-11-27T21:16:04.018Z,10.16
2022-11-27T21:18:30.592Z,10.19
2022-11-27T21:21:05.360Z,10.10
2022-11-27T21:23:31.852Z,10.03
2022-11-27T21:25:58.330Z,10.12
2022-11-27T21:28:24.804Z,10.06
2022-11-27T21:30:51.465Z,10.09
2022-11-27T21:33:17.885Z,10.06
2022-11-27T21:35:44.341Z,10.02
2022-11-27T21:38:10.788Z,9.98
2022-11-27T21:40:37.576Z,10.00
2022-11-27T21:43:04.049Z,9.97
2022-11-27T21:45:30.533Z,9.85
2022-11-27T21:47:57.028Z,9.89
2022-11-27T21:50:23.477Z,9.75
2022-11-27T21:52:52.314Z,9.87
2022-11-27T21:55:18.782Z,9.79
2022-11-27T21:57:45.254Z,9.79
2022-11-27T22:00:11.982Z,9.65
2022-11-27T22:02:38.532Z,9.75
2022-11-27T22:05:05.766Z,9.72
2022-11-27T22:07:32.244Z,9.69
2022-11-27T22:09:58.789Z,9.65
2022-11-27T22:12:25.391Z,9.49
2022-11-27T22:14:51.902Z,9.51
2022-11-27T22:17:19.170Z,9.60
2022-11-27T22:19:45.919Z,9.55
2022-11-27T22:22:12.366Z,9.43
2022-11-27T22:24:38.818Z,9.51
2022-11-27T22:27:05.588Z,9.48
2022-11-27T22:29:32.221Z,9.46
2022-11-27T22:31:58.705Z,9.42
2022-11-27T22:34:25.627Z,9.40
2022-11-27T22:36:52.083Z,9.24
2022-11-27T22:39:18.562Z,9.23
2022-11-27T22:41:45.115Z,9.27
2022-11-27T22:44:15.347Z,9.27
2022-11-27T22:46:42.601Z,9.11
2022-11-27T22:49:10.994Z,9.19
2022-11-27T22:51:38.156Z,9.08
2022-11-27T22:54:06.710Z,9.09
2022-11-27T22:56:33.796Z,9.04
2022-11-27T22:59:30.642Z,8.79
2022-11-27T23:01:48.650Z,8.91
2022-11-27T23:04:15.320Z,8.88
2022-11-27T23:06:41.983Z,8.73
2022-11-27T23:09:09.552Z,8.76
2022-11-27T23:11:36.208Z,8.69
2022-11-27T23:14:05.973Z,8.64
2022-11-27T23:16:33.703Z,8.61
2022-11-27T23:19:00.391Z,8.46
2022-11-27T23:21:30.137Z,8.48
2022-11-27T23:23:58.876Z,8.40
2022-11-27T23:26:25.588Z,8.35
2022-11-27T23:28:58.880Z,8.29
2022-11-27T23:31:30.288Z,8.28
2022-11-27T23:33:59.294Z,8.14
2022-11-27T23:36:25.844Z,8.12
2022-11-27T23:38:52.712Z,8.13
2022-11-27T23:41:22.335Z,8.10
2022-11-27T23:43:51.637Z,8.02
2022-11-27T23:46:21.050Z,8.02
2022-11-27T23:48:48.017Z,7.97
2022-11-27T23:51:17.532Z,7.93
2022-11-27T23:53:47.491Z,7.83
2022-11-27T23:56:22.708Z,7.73
2022-11-27T23:58:54.636Z,7.77
